Portada
METAR-TAF:

METAR-TAF

Aeroports :

Osca, Espanya

latitud: 42-04-32N, longitud: 0-18-58W, altitud: 539 m

Observació

L'informe es va fer fa 31 minuts, a les 14:00 UTC
Vent 22 kt del Oest/Nord-Oest amb ràfegues de 33 kt, variant entre Oest i Nord-Oest
Temperatura 12°C
Humitat 47%
Pressió 1017 hPa
Visibilitat 10 km o més
Escasses núvols a una alçada de 4000 ft

METAR: LEHC 261400Z 29022G33KT 260V320 9999 FEW040 12/01 Q1017

Hora: 15:31 (14:31 UTC)

Pronòstic

L'informe es va fer fa 6 hores i 31 minuts, a les 08:00 UTC
Pronòstic vàlid del 26 a les 09 UTC al 27 a les 09 UTC
Vent 12 kt del Oest/Nord-Oest
Visibilitat 10 km o més
sense núvols per sota de 1500 mi sense presència de cumulonimbus.
Temporalment
l' 26 a les 09 UTC al 26 a les 16 UTC
Vent 20 kt del Oest/Nord-Oest amb ràfegues de 35 kt
Evolucionant progressivament
l' 26 a les 18 UTC al 26 a les 20 UTC
Vent 8 kt del Oest

TAF: LEHC 260800Z 2609/2709 29012KT CAVOK TX12/2615Z TN01/2703Z TEMPO 2609/2616 29020G35KT BECMG 2618/2620 27008KT

Observacions i pronòstics meteorològics de més de 4000 aeroports (METAR i TAF).

Les estacions disponibles són els punts grocs i vermells al mapa.

Posi el ratolí al punt desitjat per veure el nom de l'estació.

Feu clic per veure les observacions i els pronòstics meteorològics.

Per canviar el mapa: feu clic els botons verds amb una creu de color negre per apropar; al botó verd amb un guió per allunyar la imatge; o en les fletxes verdes per a mapes adjacents.


METAR-TAF: